createdAt,value
2022-08-23T00:02:24.789Z,40.33
2022-08-23T00:05:03.515Z,47.97
2022-08-23T00:07:40.162Z,39.35
2022-08-23T00:10:10.542Z,42.20
2022-08-23T00:15:05.999Z,42.60
2022-08-23T00:17:35.165Z,48.15
2022-08-23T00:20:15.823Z,45.72
2022-08-23T00:22:42.972Z,37.30
2022-08-23T00:25:12.185Z,41.53
2022-08-23T00:27:39.834Z,42.80
2022-08-23T00:30:10.143Z,44.53
2022-08-23T00:35:06.375Z,43.95
2022-08-23T00:37:33.846Z,38.72
2022-08-23T00:40:01.473Z,47.50
2022-08-23T00:42:59.404Z,40.63
2022-08-23T00:45:55.497Z,45.03
2022-08-23T00:48:23.251Z,41.95
2022-08-23T00:50:55.663Z,45.90
2022-08-23T00:53:36.647Z,47.88
2022-08-23T00:56:07.341Z,44.30
2022-08-23T00:58:34.857Z,48.72
2022-08-23T01:01:04.687Z,48.22
2022-08-23T01:03:38.694Z,38.53
2022-08-23T01:06:22.501Z,47.10
2022-08-23T01:09:02.151Z,47.67
2022-08-23T01:11:39.329Z,47.17
2022-08-23T01:14:11.689Z,47.38
2022-08-23T01:17:05.696Z,49.33
2022-08-23T01:19:37.520Z,45.35
2022-08-23T01:22:16.174Z,49.03
2022-08-23T01:25:07.720Z,48.95
2022-08-23T01:27:33.686Z,64.57
2022-08-23T01:30:00.783Z,49.08
2022-08-23T01:32:29.901Z,47.58
2022-08-23T01:34:57.241Z,44.55
2022-08-23T01:37:24.372Z,43.63
2022-08-23T01:39:52.941Z,46.42
2022-08-23T01:42:20.305Z,47.40
2022-08-23T01:44:47.383Z,52.22
2022-08-23T01:47:15.065Z,44.60
2022-08-23T01:49:42.189Z,49.15
2022-08-23T01:52:10.366Z,46.17
2022-08-23T01:54:37.992Z,50.03
2022-08-23T01:57:06.423Z,44.30
2022-08-23T01:59:34.309Z,47.83
2022-08-23T02:02:01.728Z,41.47
2022-08-23T02:04:29.576Z,45.90
2022-08-23T02:06:56.825Z,50.50
2022-08-23T02:09:25.528Z,50.72
2022-08-23T02:11:55.703Z,45.05
2022-08-23T02:14:22.937Z,42.05
2022-08-23T02:19:34.506Z,40.92
2022-08-23T02:22:03.731Z,56.65
2022-08-23T02:24:31.788Z,46.60
2022-08-23T02:27:03.456Z,44.65
2022-08-23T02:29:35.286Z,45.42
2022-08-23T02:32:09.981Z,50.47
2022-08-23T02:34:38.106Z,44.35
2022-08-23T02:37:07.483Z,45.08
2022-08-23T02:39:35.303Z,41.70
2022-08-23T02:42:02.727Z,46.63
2022-08-23T02:44:34.762Z,41.65
2022-08-23T02:49:30.318Z,40.35
2022-08-23T02:51:57.408Z,45.03
2022-08-23T02:54:24.938Z,42.42
2022-08-23T02:56:52.856Z,43.05
2022-08-23T02:59:20.007Z,42.60
2022-08-23T03:01:47.859Z,43.35
2022-08-23T03:04:27.945Z,42.33
2022-08-23T03:06:55.514Z,44.63
2022-08-23T03:09:23.600Z,42.08
2022-08-23T03:11:51.020Z,50.65
2022-08-23T03:14:20.506Z,42.28
2022-08-23T03:16:48.257Z,48.85
2022-08-23T03:19:15.595Z,48.40
2022-08-23T03:21:45.675Z,46.00
2022-08-23T03:24:15.050Z,45.03
2022-08-23T03:26:44.224Z,51.25
2022-08-23T03:29:12.954Z,54.07
2022-08-23T03:31:58.061Z,40.15
2022-08-23T03:34:26.018Z,42.92
2022-08-23T03:36:53.969Z,45.13
2022-08-23T03:39:21.164Z,45.47
2022-08-23T03:41:48.727Z,43.70
2022-08-23T03:44:15.938Z,40.38
2022-08-23T03:46:44.688Z,48.13
2022-08-23T03:49:12.114Z,51.40
2022-08-23T03:51:52.164Z,48.25
2022-08-23T03:54:19.397Z,42.33
2022-08-23T03:57:02.991Z,39.15
2022-08-23T03:59:35.519Z,48.10
2022-08-23T04:02:05.143Z,39.42
2022-08-23T04:04:33.115Z,48.03
2022-08-23T04:07:39.622Z,46.35
2022-08-23T04:10:09.667Z,41.08
2022-08-23T04:12:39.542Z,46.92
2022-08-23T04:15:13.632Z,39.15
2022-08-23T04:17:42.958Z,41.72
2022-08-23T04:20:10.460Z,31.05
2022-08-23T04:22:52.743Z,42.13
2022-08-23T04:25:33.102Z,47.25
2022-08-23T04:28:03.514Z,38.58
2022-08-23T04:30:32.341Z,39.22
2022-08-23T04:33:01.616Z,51.00
2022-08-23T04:37:57.641Z,41.53
2022-08-23T04:40:44.332Z,48.65
2022-08-23T04:43:12.994Z,48.53
2022-08-23T04:45:41.108Z,34.90
2022-08-23T04:48:15.073Z,40.45
2022-08-23T04:50:47.502Z,40.95
2022-08-23T04:53:18.936Z,37.08
2022-08-23T04:55:56.529Z,36.60
2022-08-23T04:58:23.679Z,37.38
2022-08-23T05:00:53.408Z,37.88
2022-08-23T05:03:27.691Z,38.72
2022-08-23T05:05:58.199Z,43.13
2022-08-23T05:08:32.671Z,35.05
2022-08-23T05:11:06.309Z,51.10
2022-08-23T05:13:35.047Z,34.47
2022-08-23T05:16:05.937Z,36.28
2022-08-23T05:18:38.051Z,31.73
2022-08-23T05:21:06.122Z,43.97
2022-08-23T05:23:34.314Z,34.63
2022-08-23T05:26:04.665Z,39.80
2022-08-23T05:28:42.303Z,34.70
2022-08-23T05:31:20.609Z,36.70
2022-08-23T05:33:57.697Z,39.90
2022-08-23T05:36:35.970Z,40.35
2022-08-23T05:39:05.740Z,40.50
2022-08-23T05:41:38.218Z,36.25
2022-08-23T05:44:10.503Z,31.80
2022-08-23T05:46:42.362Z,32.63
2022-08-23T05:49:24.204Z,33.17
2022-08-23T05:51:52.362Z,32.90
2022-08-23T05:54:22.991Z,28.73
2022-08-23T05:57:07.742Z,36.55
2022-08-23T05:59:35.200Z,36.35
2022-08-23T06:02:02.551Z,38.70
2022-08-23T06:04:33.132Z,32.90
2022-08-23T06:07:00.666Z,43.47
2022-08-23T06:09:28.119Z,32.55
2022-08-23T06:11:55.381Z,34.70
2022-08-23T06:14:22.565Z,36.33
2022-08-23T06:16:55.556Z,27.88
2022-08-23T06:19:26.362Z,26.55
2022-08-23T06:22:03.492Z,36.47
2022-08-23T06:24:35.557Z,31.60
2022-08-23T06:27:14.234Z,36.22
2022-08-23T06:29:43.056Z,37.45
2022-08-23T06:32:39.260Z,30.80
2022-08-23T06:35:40.203Z,29.80
2022-08-23T06:38:30.722Z,28.42
2022-08-23T06:41:09.622Z,33.65
2022-08-23T06:44:00.149Z,29.80
2022-08-23T06:46:51.741Z,27.00
2022-08-23T06:49:19.916Z,27.52
2022-08-23T06:51:51.190Z,30.50
2022-08-23T06:56:56.632Z,32.13
2022-08-23T06:59:29.581Z,32.05
2022-08-23T07:02:03.604Z,32.38
2022-08-23T07:04:54.191Z,27.90
2022-08-23T07:07:50.404Z,37.25
2022-08-23T07:10:18.754Z,37.50
2022-08-23T07:12:45.860Z,32.17
2022-08-23T07:15:13.636Z,28.77
2022-08-23T07:17:44.558Z,29.13
2022-08-23T07:20:12.631Z,30.92
2022-08-23T07:25:10.363Z,25.63
2022-08-23T07:27:39.610Z,27.48
2022-08-23T07:30:08.691Z,30.08
2022-08-23T07:32:38.334Z,27.58
2022-08-23T07:35:21.619Z,29.70
2022-08-23T07:37:50.067Z,21.70
2022-08-23T07:40:20.780Z,27.35
2022-08-23T07:42:52.114Z,24.88
2022-08-23T07:45:23.070Z,26.27
2022-08-23T07:47:54.693Z,29.02
2022-08-23T07:50:24.549Z,28.55
2022-08-23T07:52:58.189Z,29.52
2022-08-23T07:55:25.343Z,23.17
2022-08-23T07:58:13.101Z,27.25
2022-08-23T08:01:12.056Z,29.08
2022-08-23T08:03:48.219Z,44.30
2022-08-23T08:06:35.324Z,31.63
2022-08-23T08:09:03.571Z,32.83
2022-08-23T08:11:35.240Z,39.55
2022-08-23T08:14:09.340Z,29.35
2022-08-23T08:16:45.649Z,36.60
2022-08-23T08:19:20.334Z,28.40
2022-08-23T08:21:53.374Z,29.70
2022-08-23T08:24:39.783Z,40.25
2022-08-23T08:27:11.366Z,27.92
2022-08-23T08:29:38.620Z,25.58
2022-08-23T08:32:06.083Z,38.03
2022-08-23T08:34:33.362Z,29.65
2022-08-23T08:37:01.948Z,23.70
2022-08-23T08:39:31.951Z,25.90
2022-08-23T08:42:22.477Z,31.73
2022-08-23T08:44:58.291Z,35.85
2022-08-23T08:47:37.572Z,29.30
2022-08-23T08:50:49.309Z,34.58
2022-08-23T08:53:40.438Z,19.25
2022-08-23T08:56:32.622Z,22.15
2022-08-23T08:59:46.293Z,21.17
2022-08-23T09:02:31.847Z,26.73
2022-08-23T09:05:26.987Z,20.67
2022-08-23T09:08:39.810Z,22.65
2022-08-23T09:11:39.522Z,22.33
2022-08-23T09:14:31.715Z,19.35
2022-08-23T09:17:12.907Z,21.58
2022-08-23T09:19:40.909Z,21.23
2022-08-23T09:22:14.896Z,19.08
2022-08-23T09:24:42.821Z,20.05
2022-08-23T09:27:16.725Z,17.67
2022-08-23T09:29:56.244Z,19.80
2022-08-23T09:32:30.745Z,24.45
2022-08-23T09:35:19.075Z,20.90
2022-08-23T09:38:17.308Z,16.73
2022-08-23T09:40:49.758Z,18.23
2022-08-23T09:43:22.039Z,22.40
2022-08-23T09:45:49.199Z,13.23
2022-08-23T09:48:42.845Z,20.65
2022-08-23T09:51:31.112Z,15.27
2022-08-23T09:56:55.745Z,17.35
2022-08-23T09:59:26.808Z,17.58
2022-08-23T10:02:00.462Z,18.98
2022-08-23T10:04:46.959Z,14.68
2022-08-23T10:07:26.624Z,16.92
2022-08-23T10:10:15.087Z,22.88
2022-08-23T10:12:43.124Z,13.50
2022-08-23T10:15:11.272Z,15.13
2022-08-23T10:18:11.825Z,14.60
2022-08-23T10:20:53.241Z,17.63
2022-08-23T10:23:55.485Z,15.43
2022-08-23T10:26:52.265Z,13.48
2022-08-23T10:29:37.598Z,12.80
2022-08-23T10:32:05.866Z,15.07
2022-08-23T10:35:34.028Z,14.43
2022-08-23T10:38:36.203Z,15.20
2022-08-23T10:41:33.083Z,9.60
2022-08-23T10:44:15.696Z,11.55
2022-08-23T10:46:58.020Z,14.80
2022-08-23T10:49:27.617Z,10.40
2022-08-23T10:51:57.906Z,13.82
2022-08-23T10:54:46.325Z,12.77
2022-08-23T10:57:20.529Z,10.25
2022-08-23T10:59:50.690Z,15.38
2022-08-23T11:05:30.513Z,13.05
2022-08-23T11:08:36.954Z,10.70
2022-08-23T11:11:35.361Z,9.18
2022-08-23T11:14:04.181Z,9.82
2022-08-23T11:16:31.936Z,12.38
2022-08-23T11:19:00.006Z,17.13
2022-08-23T11:21:38.552Z,9.45
2022-08-23T11:24:11.780Z,11.73
2022-08-23T11:26:40.217Z,15.32
2022-08-23T11:29:11.896Z,7.70
2022-08-23T11:31:51.090Z,10.55
2022-08-23T11:34:31.916Z,10.52
2022-08-23T11:37:18.712Z,15.77
2022-08-23T11:39:59.391Z,12.05
2022-08-23T11:42:38.539Z,14.88
2022-08-23T11:45:39.331Z,10.63
2022-08-23T11:48:24.281Z,8.10
2022-08-23T11:50:57.568Z,11.15
2022-08-23T11:53:39.700Z,11.43
2022-08-23T11:56:16.079Z,17.35
2022-08-23T11:59:35.082Z,10.88
2022-08-23T12:02:35.233Z,11.80
2022-08-23T12:05:23.584Z,11.25
2022-08-23T12:07:50.595Z,12.45
2022-08-23T12:10:43.475Z,8.13
2022-08-23T12:13:19.736Z,14.18
2022-08-23T12:16:17.048Z,8.45
2022-08-23T12:18:47.660Z,25.20
2022-08-23T12:21:24.005Z,11.57
2022-08-23T12:23:57.545Z,8.77
2022-08-23T12:26:40.283Z,10.15
2022-08-23T12:29:46.311Z,10.55
2022-08-23T12:32:30.408Z,12.20
2022-08-23T12:35:16.057Z,9.07
2022-08-23T12:37:55.279Z,9.50
2022-08-23T12:40:35.997Z,7.70
2022-08-23T12:43:29.063Z,13.48
2022-08-23T12:45:59.209Z,9.70
2022-08-23T12:48:33.846Z,12.15
2022-08-23T12:51:10.709Z,9.73
2022-08-23T12:53:45.354Z,12.20
2022-08-23T12:56:31.770Z,9.23
2022-08-23T12:59:06.834Z,10.30
2022-08-23T13:01:37.640Z,10.65
2022-08-23T13:04:12.179Z,9.23
2022-08-23T13:06:47.541Z,9.82
2022-08-23T13:09:29.688Z,9.65
2022-08-23T13:11:59.057Z,8.18
2022-08-23T13:14:31.128Z,8.98
2022-08-23T13:17:18.072Z,12.40
2022-08-23T13:19:48.061Z,11.55
2022-08-23T13:22:19.044Z,14.52
2022-08-23T13:25:26.812Z,11.60
2022-08-23T13:27:48.524Z,6.90
2022-08-23T13:30:17.770Z,10.82
2022-08-23T13:32:48.296Z,13.82
2022-08-23T13:35:33.958Z,12.95
2022-08-23T13:38:18.311Z,6.45
2022-08-23T13:40:50.570Z,14.77
2022-08-23T13:46:34.262Z,11.70
2022-08-23T13:49:11.616Z,11.40
2022-08-23T13:51:40.590Z,7.82
2022-08-23T13:54:14.151Z,8.77
2022-08-23T13:57:07.967Z,11.52
2022-08-23T13:59:41.505Z,12.32
2022-08-23T14:02:14.396Z,11.32
2022-08-23T14:04:42.282Z,11.30
2022-08-23T14:07:10.077Z,9.88
2022-08-23T14:09:38.473Z,9.35
2022-08-23T14:12:17.926Z,10.10
2022-08-23T14:14:46.136Z,10.48
2022-08-23T14:17:16.550Z,9.00
2022-08-23T14:22:35.704Z,11.18
2022-08-23T14:25:03.497Z,10.65
2022-08-23T14:27:30.830Z,7.43
2022-08-23T14:29:58.084Z,10.02
2022-08-23T14:32:25.528Z,8.85
2022-08-23T14:34:52.887Z,8.85
2022-08-23T14:40:09.574Z,8.23
2022-08-23T14:42:37.627Z,11.23
2022-08-23T14:45:06.294Z,14.32
2022-08-23T14:47:35.525Z,12.38
2022-08-23T14:50:07.965Z,10.63
2022-08-23T14:52:40.641Z,13.82
2022-08-23T14:55:08.736Z,12.05
2022-08-23T14:57:37.818Z,13.98
2022-08-23T15:00:08.708Z,7.03
2022-08-23T15:02:36.734Z,9.38
2022-08-23T15:05:04.463Z,8.93
2022-08-23T15:07:31.609Z,7.13
2022-08-23T15:09:58.898Z,11.50
2022-08-23T15:15:20.680Z,9.93
2022-08-23T15:17:59.312Z,9.40
2022-08-23T15:20:33.390Z,9.77
2022-08-23T15:23:00.859Z,9.00
2022-08-23T15:25:34.253Z,21.40
2022-08-23T15:28:05.514Z,22.38
2022-08-23T15:30:35.599Z,11.85
2022-08-23T15:33:03.807Z,13.40
2022-08-23T15:35:37.062Z,9.80
2022-08-23T15:38:07.237Z,12.20
2022-08-23T15:40:34.544Z,12.63
2022-08-23T15:43:03.340Z,8.93
2022-08-23T15:45:33.423Z,8.18
2022-08-23T15:50:32.732Z,11.57
2022-08-23T15:53:00.025Z,10.65
2022-08-23T15:55:31.178Z,11.80
2022-08-23T15:57:58.851Z,11.35
2022-08-23T16:00:28.437Z,14.43
2022-08-23T16:03:20.415Z,18.55
2022-08-23T16:05:46.079Z,21.27
2022-08-23T16:08:23.256Z,20.88
2022-08-23T16:10:51.407Z,27.85
2022-08-23T16:13:19.327Z,26.10
2022-08-23T16:15:46.976Z,30.83
2022-08-23T16:18:14.622Z,43.92
2022-08-23T16:20:42.997Z,41.47
2022-08-23T16:23:11.027Z,39.47
2022-08-23T16:25:38.868Z,45.72
2022-08-23T16:28:07.645Z,53.97
2022-08-23T16:30:35.603Z,53.33
2022-08-23T16:33:03.703Z,52.45
2022-08-23T16:35:31.001Z,61.92
2022-08-23T16:37:58.208Z,71.20
2022-08-23T16:40:25.652Z,70.05
2022-08-23T16:42:52.911Z,75.95
2022-08-23T16:45:25.219Z,76.10
2022-08-23T16:47:53.808Z,75.50
2022-08-23T16:50:20.955Z,80.63
2022-08-23T16:52:48.190Z,87.32
2022-08-23T16:55:15.465Z,100.47
2022-08-23T16:57:42.850Z,83.15
2022-08-23T17:00:14.237Z,105.30
2022-08-23T17:02:42.525Z,93.30
2022-08-23T17:05:13.829Z,85.45
2022-08-23T17:07:41.108Z,86.85
2022-08-23T17:10:11.006Z,94.28
2022-08-23T17:12:42.184Z,105.25
2022-08-23T17:15:19.811Z,92.43
2022-08-23T17:17:48.843Z,94.85
2022-08-23T17:20:17.609Z,101.95
2022-08-23T17:22:45.076Z,101.22
2022-08-23T17:25:15.212Z,104.15
2022-08-23T17:27:46.232Z,100.82
2022-08-23T17:30:16.929Z,91.35
2022-08-23T17:32:45.189Z,113.57
2022-08-23T17:35:15.015Z,97.43
2022-08-23T17:37:43.321Z,99.03
2022-08-23T17:40:17.557Z,97.00
2022-08-23T17:42:48.947Z,97.28
2022-08-23T17:45:18.337Z,98.70
2022-08-23T17:47:46.113Z,107.43
2022-08-23T17:50:14.107Z,101.15
2022-08-23T17:52:41.509Z,99.43
2022-08-23T17:55:10.715Z,101.63
2022-08-23T17:57:40.913Z,98.30
2022-08-23T18:00:08.978Z,103.03
2022-08-23T18:02:39.664Z,99.65
2022-08-23T18:05:08.083Z,95.47
2022-08-23T18:07:35.335Z,104.20
2022-08-23T18:10:03.213Z,109.32
2022-08-23T18:12:32.472Z,108.35
2022-08-23T18:15:03.513Z,95.32
2022-08-23T18:17:32.322Z,98.22
2022-08-23T18:19:59.924Z,94.07
2022-08-23T18:22:27.219Z,101.60
2022-08-23T18:24:54.383Z,109.90
2022-08-23T18:27:40.449Z,100.90
2022-08-23T18:30:10.598Z,94.18
2022-08-23T18:32:37.976Z,94.75
2022-08-23T18:35:05.856Z,92.18
2022-08-23T18:37:33.803Z,81.53
2022-08-23T18:40:02.120Z,92.72
2022-08-23T18:42:31.414Z,86.05
2022-08-23T18:44:58.897Z,91.97
2022-08-23T18:47:26.618Z,92.05
2022-08-23T18:49:53.936Z,94.40
2022-08-23T18:52:21.122Z,97.35
2022-08-23T18:54:48.518Z,90.88
2022-08-23T18:57:16.376Z,95.18
2022-08-23T18:59:44.540Z,86.28
2022-08-23T19:02:11.967Z,92.93
2022-08-23T19:04:39.409Z,87.00
2022-08-23T19:07:08.405Z,91.68
2022-08-23T19:09:35.635Z,100.00
2022-08-23T19:12:04.308Z,89.53
2022-08-23T19:14:33.451Z,85.20
2022-08-23T19:17:03.673Z,85.00
2022-08-23T19:19:31.145Z,80.28
2022-08-23T19:21:58.515Z,87.32
2022-08-23T19:24:25.918Z,81.55
2022-08-23T19:26:54.311Z,96.85
2022-08-23T19:29:23.930Z,90.20
2022-08-23T19:31:51.234Z,74.80
2022-08-23T19:34:20.808Z,74.28
2022-08-23T19:36:56.567Z,82.15
2022-08-23T19:39:26.723Z,82.70
2022-08-23T19:41:53.845Z,77.93
2022-08-23T19:44:21.558Z,85.57
2022-08-23T19:46:49.166Z,78.70
2022-08-23T19:49:16.631Z,78.38
2022-08-23T19:51:44.088Z,85.90
2022-08-23T19:54:12.817Z,80.45
2022-08-23T19:56:47.005Z,85.63
2022-08-23T19:59:23.276Z,75.22
2022-08-23T20:01:52.859Z,75.28
2022-08-23T20:04:22.240Z,88.97
2022-08-23T20:06:49.412Z,78.37
2022-08-23T20:09:18.560Z,85.30
2022-08-23T20:11:46.235Z,80.97
2022-08-23T20:14:13.348Z,95.70
2022-08-23T20:16:42.355Z,79.28
2022-08-23T20:19:11.107Z,83.40
2022-08-23T20:21:39.835Z,98.63
2022-08-23T20:24:09.907Z,89.15
2022-08-23T20:26:49.301Z,82.78
2022-08-23T20:29:19.352Z,77.68
2022-08-23T20:34:18.427Z,84.03
2022-08-23T20:36:45.877Z,80.13
2022-08-23T20:39:13.187Z,81.75
2022-08-23T20:41:41.397Z,91.68
2022-08-23T20:44:09.436Z,83.15
2022-08-23T20:46:37.225Z,91.95
2022-08-23T20:49:05.091Z,88.07
2022-08-23T20:51:34.853Z,70.97
2022-08-23T20:54:06.654Z,79.18
2022-08-23T20:56:35.496Z,72.22
2022-08-23T20:59:03.412Z,75.00
2022-08-23T21:01:30.713Z,75.90
2022-08-23T21:03:57.965Z,80.82
2022-08-23T21:06:30.301Z,80.32
2022-08-23T21:09:00.117Z,72.15
2022-08-23T21:11:28.853Z,72.15
2022-08-23T21:13:57.363Z,73.68
2022-08-23T21:16:25.352Z,73.00
2022-08-23T21:18:55.413Z,72.30
2022-08-23T21:23:50.622Z,73.82
2022-08-23T21:26:18.192Z,66.80
2022-08-23T21:28:45.691Z,64.53
2022-08-23T21:31:15.717Z,71.35
2022-08-23T21:33:43.784Z,78.95
2022-08-23T21:36:12.956Z,64.88
2022-08-23T21:38:40.102Z,72.68
2022-08-23T21:41:11.397Z,67.93
2022-08-23T21:43:39.072Z,69.95
2022-08-23T21:46:07.338Z,61.88
2022-08-23T21:48:34.672Z,60.03
2022-08-23T21:51:01.868Z,59.17
2022-08-23T21:53:29.001Z,53.20
2022-08-23T21:55:56.126Z,53.70
2022-08-23T21:58:23.269Z,57.70
2022-08-23T22:00:50.705Z,58.78
2022-08-23T22:03:17.916Z,45.33
2022-08-23T22:05:46.886Z,51.33
2022-08-23T22:08:15.977Z,51.90
2022-08-23T22:13:28.794Z,48.58
2022-08-23T22:15:56.478Z,44.58
2022-08-23T22:18:23.640Z,44.65
2022-08-23T22:20:50.830Z,46.67
2022-08-23T22:23:17.967Z,43.28
2022-08-23T22:25:45.070Z,47.65
2022-08-23T22:28:12.179Z,46.50
2022-08-23T22:30:42.443Z,41.83
2022-08-23T22:33:11.322Z,39.03
2022-08-23T22:35:39.267Z,40.22
2022-08-23T22:38:14.643Z,41.30
2022-08-23T22:40:52.191Z,45.08
2022-08-23T22:43:20.150Z,38.58
2022-08-23T22:45:55.124Z,44.05
2022-08-23T22:48:23.416Z,47.85
2022-08-23T22:50:51.009Z,39.17
2022-08-23T22:53:18.276Z,36.05
2022-08-23T22:55:51.469Z,36.63
2022-08-23T22:58:18.982Z,33.47
2022-08-23T23:00:46.141Z,39.97
2022-08-23T23:03:13.362Z,38.85
2022-08-23T23:05:41.817Z,37.08
2022-08-23T23:08:27.819Z,39.08
2022-08-23T23:11:01.381Z,36.88
2022-08-23T23:13:31.596Z,39.72
2022-08-23T23:16:03.847Z,50.85
2022-08-23T23:18:31.071Z,43.13
2022-08-23T23:21:00.594Z,38.13
2022-08-23T23:23:29.342Z,41.50
2022-08-23T23:25:56.549Z,41.35
2022-08-23T23:28:23.697Z,40.97
2022-08-23T23:30:53.184Z,42.47
2022-08-23T23:33:22.437Z,50.67
2022-08-23T23:35:51.790Z,45.90
2022-08-23T23:38:19.097Z,38.20
2022-08-23T23:40:46.249Z,41.78
2022-08-23T23:43:13.682Z,45.33
2022-08-23T23:45:42.271Z,45.05
2022-08-23T23:48:09.851Z,47.97
2022-08-23T23:50:42.410Z,47.97
2022-08-23T23:53:15.122Z,42.88
2022-08-23T23:55:43.616Z,41.63
2022-08-23T23:58:10.782Z,39.72
